Time;durP1;ratioP1;P1;durP2;ratioP2;P2;SDS_P1;SDS_P2;PMS_P1;PMS_P2;Temp;Humidity;BMP_temperature;BMP_pressure;BME280_temperature;BME280_humidity;BME280_pressure;Samples;Min_cycle;Max_cycle;Signal;HPM_P1;HPM_P2
2023/09/06 00:00:25;;;;;;;7.55;3.55;;;22.20;73.60;;;;;;5033580;28;20033;-66
2023/09/06 00:02:51;;;;;;;6.72;3.25;;;22.20;73.60;;;;;;5026129;28;20033;-66
2023/09/06 00:05:17;;;;;;;7.78;3.55;;;22.20;73.60;;;;;;5027955;28;20033;-66
2023/09/06 00:07:44;;;;;;;7.45;3.60;;;22.10;73.50;;;;;;5063194;28;20057;-66
2023/09/06 00:10:10;;;;;;;7.20;3.55;;;22.10;74.30;;;;;;5027373;28;20060;-66
2023/09/06 00:12:36;;;;;;;7.65;3.50;;;22.10;73.70;;;;;;5031123;28;20737;-66
2023/09/06 00:15:03;;;;;;;6.95;3.70;;;22.10;73.80;;;;;;5024514;28;20079;-66
2023/09/06 00:17:29;;;;;;;7.63;3.40;;;22.00;73.60;;;;;;5026640;28;20347;-66
2023/09/06 00:19:55;;;;;;;8.07;3.83;;;22.00;73.60;;;;;;5024903;28;20040;-66
2023/09/06 00:22:20;;;;;;;8.30;3.55;;;22.00;73.70;;;;;;5040355;28;20061;-66
2023/09/06 00:24:46;;;;;;;8.18;3.60;;;22.00;73.70;;;;;;5031542;28;20017;-67
2023/09/06 00:27:14;;;;;;;6.93;3.70;;;22.00;73.60;;;;;;5029773;28;20091;-66
2023/09/06 00:29:46;;;;;;;7.22;3.38;;;21.90;73.60;;;;;;5030715;28;20021;-66
2023/09/06 00:32:11;;;;;;;7.50;3.80;;;21.90;73.70;;;;;;5029309;28;20032;-66
2023/09/06 00:34:37;;;;;;;7.20;3.33;;;21.90;73.70;;;;;;5026514;28;20021;-66
2023/09/06 00:37:03;;;;;;;7.53;3.20;;;21.90;73.70;;;;;;5032590;28;20065;-66
2023/09/06 00:39:30;;;;;;;9.88;3.75;;;21.90;73.60;;;;;;5032270;28;20025;-66
2023/09/06 00:41:56;;;;;;;7.47;3.47;;;21.90;74.30;;;;;;5057852;28;20037;-66
2023/09/06 00:44:22;;;;;;;9.98;3.40;;;21.90;73.50;;;;;;5025586;28;20034;-66
2023/09/06 00:46:48;;;;;;;6.82;2.97;;;21.90;73.40;;;;;;5029690;28;20363;-66
2023/09/06 00:49:14;;;;;;;5.95;2.92;;;21.90;73.40;;;;;;5025581;28;20118;-66
2023/09/06 00:51:40;;;;;;;7.18;3.17;;;21.80;73.40;;;;;;5030117;28;20398;-67
2023/09/06 00:54:05;;;;;;;5.88;2.90;;;21.80;73.40;;;;;;5060748;28;20037;-66
2023/09/06 00:56:31;;;;;;;8.40;3.30;;;21.80;73.30;;;;;;5031854;28;20082;-66
2023/09/06 00:58:57;;;;;;;8.93;3.90;;;21.80;73.30;;;;;;5023429;28;20041;-67
2023/09/06 01:01:23;;;;;;;8.75;3.50;;;21.80;73.30;;;;;;5047002;28;20037;-67
2023/09/06 01:03:49;;;;;;;6.35;3.20;;;21.80;73.40;;;;;;5028125;28;20076;-66
2023/09/06 01:06:30;;;;;;;7.43;3.60;;;21.70;73.40;;;;;;5030580;28;20037;-66
2023/09/06 01:08:57;;;;;;;7.07;3.65;;;21.70;73.40;;;;;;5027665;28;20060;-66
2023/09/06 01:11:25;;;;;;;6.95;3.20;;;21.70;73.50;;;;;;5028920;28;20430;-66
2023/09/06 01:13:53;;;;;;;7.32;3.55;;;21.70;73.50;;;;;;5020083;28;20048;-66
2023/09/06 01:16:39;;;;;;;7.80;3.80;;;21.70;73.60;;;;;;5040714;28;20476;-66
2023/09/06 01:19:06;;;;;;;6.60;3.40;;;21.60;73.50;;;;;;5029991;28;20449;-66
2023/09/06 01:21:58;;;;;;;6.88;3.35;;;21.60;73.70;;;;;;5028864;28;20151;-66
2023/09/06 01:24:25;;;;;;;7.68;3.40;;;21.60;73.50;;;;;;5038336;28;20122;-66
2023/09/06 01:26:52;;;;;;;6.75;3.20;;;21.50;73.60;;;;;;5019453;28;20026;-66
2023/09/06 01:29:18;;;;;;;6.63;3.55;;;21.50;73.60;;;;;;5027457;28;20079;-66
2023/09/06 01:31:44;;;;;;;6.55;3.17;;;21.50;73.60;;;;;;5057268;28;20029;-66
2023/09/06 01:34:10;;;;;;;5.63;2.95;;;21.50;73.60;;;;;;5052238;28;20022;-66
2023/09/06 01:36:37;;;;;;;8.40;3.65;;;21.50;73.50;;;;;;5028099;28;20067;-66
2023/09/06 01:39:04;;;;;;;7.22;3.08;;;21.40;73.50;;;;;;5030712;28;20144;-66
2023/09/06 01:41:30;;;;;;;7.60;3.60;;;21.40;73.50;;;;;;5024233;28;20439;-67
2023/09/06 01:43:56;;;;;;;7.28;3.38;;;21.40;73.50;;;;;;5024262;28;20022;-66
2023/09/06 01:46:23;;;;;;;6.88;2.92;;;21.30;73.40;;;;;;5022594;28;20484;-66
2023/09/06 01:48:49;;;;;;;6.30;3.60;;;21.30;73.50;;;;;;5036921;28;20060;-66
2023/09/06 01:51:15;;;;;;;6.70;3.13;;;21.30;73.50;;;;;;5026710;28;20024;-66
2023/09/06 01:53:42;;;;;;;7.80;3.58;;;21.30;73.50;;;;;;5029481;28;20029;-66
2023/09/06 01:56:07;;;;;;;9.38;3.45;;;21.30;73.60;;;;;;5021382;28;20404;-66
2023/09/06 01:58:35;;;;;;;7.28;3.58;;;21.20;73.60;;;;;;5027337;28;20048;-66
2023/09/06 02:01:01;;;;;;;7.53;3.55;;;21.20;73.60;;;;;;5028639;28;20462;-66
2023/09/06 02:03:29;;;;;;;6.18;3.35;;;21.20;73.60;;;;;;5040472;28;20136;-66
2023/09/06 02:05:55;;;;;;;7.35;3.20;;;21.20;73.60;;;;;;5029664;28;20083;-66
2023/09/06 02:08:21;;;;;;;7.40;3.25;;;21.20;73.70;;;;;;5025120;28;20018;-66
2023/09/06 02:10:48;;;;;;;7.25;3.97;;;21.20;73.70;;;;;;5027159;28;20084;-66
2023/09/06 02:13:14;;;;;;;7.43;3.38;;;21.20;73.70;;;;;;5052361;28;20347;-66
2023/09/06 02:15:41;;;;;;;5.90;3.45;;;21.10;73.60;;;;;;5028040;28;20108;-66
2023/09/06 02:18:07;;;;;;;6.30;3.03;;;21.10;73.70;;;;;;5023877;28;20192;-66
2023/09/06 02:20:32;;;;;;;6.95;3.50;;;21.10;73.80;;;;;;5022410;28;20026;-66
2023/09/06 02:22:58;;;;;;;7.65;3.60;;;21.10;73.90;;;;;;5029310;28;20120;-66
2023/09/06 02:25:30;;;;;;;8.30;3.28;;;21.00;73.80;;;;;;5021412;28;20045;-66
2023/09/06 02:28:05;;;;;;;7.95;4.00;;;21.00;73.90;;;;;;5011005;28;20167;-66
2023/09/06 02:30:37;;;;;;;10.00;3.45;;;20.90;73.90;;;;;;5036601;28;20036;-66
2023/09/06 02:33:04;;;;;;;7.40;3.42;;;21.00;73.90;;;;;;5017964;28;20017;-66
2023/09/06 02:35:31;;;;;;;8.63;3.65;;;21.00;74.00;;;;;;5057432;28;20025;-66
2023/09/06 02:37:56;;;;;;;6.65;3.58;;;20.90;73.90;;;;;;5024532;28;20038;-66
2023/09/06 02:40:22;;;;;;;6.05;3.38;;;20.90;74.00;;;;;;5028096;28;20104;-66
2023/09/06 02:42:51;;;;;;;7.85;3.90;;;20.90;74.00;;;;;;5043062;28;20112;-66
2023/09/06 02:45:17;;;;;;;7.13;3.85;;;20.80;74.00;;;;;;5009543;28;20044;-66
2023/09/06 02:47:49;;;;;;;7.85;3.83;;;20.80;74.10;;;;;;5026771;28;20025;-66
2023/09/06 02:50:17;;;;;;;8.57;3.60;;;20.80;74.20;;;;;;5026000;28;20291;-66
2023/09/06 02:52:46;;;;;;;8.48;3.58;;;20.70;74.10;;;;;;5030390;28;20033;-66
2023/09/06 02:55:13;;;;;;;7.90;4.00;;;20.70;74.20;;;;;;5026994;28;20463;-66
2023/09/06 02:57:42;;;;;;;9.60;3.55;;;20.70;74.20;;;;;;5007702;28;20084;-66
2023/09/06 03:00:18;;;;;;;8.63;3.38;;;20.70;74.30;;;;;;5024207;28;20041;-66
2023/09/06 03:02:45;;;;;;;7.88;3.50;;;20.70;75.00;;;;;;5023828;28;20029;-66
2023/09/06 03:05:17;;;;;;;9.00;3.55;;;20.70;74.40;;;;;;5050999;28;20021;-66
2023/09/06 03:07:49;;;;;;;7.20;4.03;;;20.70;74.40;;;;;;5025871;28;21601;-66
2023/09/06 03:10:19;;;;;;;7.75;3.50;;;20.70;74.40;;;;;;5054567;28;20041;-66
2023/09/06 03:12:48;;;;;;;7.22;4.00;;;20.60;74.30;;;;;;5031045;28;20466;-66
2023/09/06 03:15:15;;;;;;;6.18;3.53;;;20.60;74.40;;;;;;5022017;28;20056;-66
2023/09/06 03:17:46;;;;;;;7.57;3.53;;;20.60;74.40;;;;;;5054938;28;20040;-66
2023/09/06 03:22:58;;;;;;;6.68;3.63;;;20.60;74.40;;;;;;5040149;28;20453;-66
2023/09/06 03:25:26;;;;;;;8.73;3.85;;;20.60;74.50;;;;;;5028190;28;20420;-66
2023/09/06 03:27:59;;;;;;;9.07;4.22;;;20.50;74.40;;;;;;5021999;28;20382;-66
2023/09/06 03:30:30;;;;;;;8.48;3.88;;;20.50;74.50;;;;;;5053535;28;20558;-66
2023/09/06 03:32:58;;;;;;;7.38;4.15;;;20.50;74.50;;;;;;5039842;28;20036;-66
2023/09/06 03:35:24;;;;;;;7.28;3.90;;;20.50;74.40;;;;;;5039801;28;20030;-66
2023/09/06 03:37:50;;;;;;;7.13;3.83;;;20.50;74.50;;;;;;5056099;28;20032;-66
2023/09/06 03:40:42;;;;;;;9.35;3.85;;;20.50;74.50;;;;;;5024234;28;20033;-66
2023/09/06 03:43:26;;;;;;;7.70;3.72;;;20.50;74.50;;;;;;5028031;28;20042;-66
2023/09/06 03:45:53;;;;;;;7.65;4.03;;;20.50;74.50;;;;;;5024835;28;20026;-66
2023/09/06 03:48:22;;;;;;;7.40;3.50;;;20.50;74.50;;;;;;5025091;28;20041;-66
2023/09/06 03:50:53;;;;;;;7.32;3.97;;;20.50;74.40;;;;;;5024306;28;20029;-66
2023/09/06 03:53:19;;;;;;;7.32;3.85;;;20.50;74.40;;;;;;5027433;28;20028;-66
2023/09/06 03:55:46;;;;;;;7.97;3.63;;;20.40;74.40;;;;;;5031077;28;20443;-66
2023/09/06 03:58:13;;;;;;;6.88;3.58;;;20.40;74.40;;;;;;5029061;28;20069;-66
2023/09/06 04:00:43;;;;;;;8.70;3.80;;;20.40;74.50;;;;;;5025951;28;20072;-66
2023/09/06 04:03:22;;;;;;;6.88;3.95;;;20.30;74.60;;;;;;5012288;28;20576;-66
2023/09/06 04:05:50;;;;;;;;;;;20.30;74.60;;;;;;5025528;28;20026;-66
2023/09/06 04:08:17;;;;;;;8.27;4.15;;;20.20;74.60;;;;;;5022187;28;19917;-66
2023/09/06 04:10:45;;;;;;;7.95;3.97;;;20.20;74.80;;;;;;5057505;28;20076;-66
2023/09/06 04:13:13;;;;;;;7.97;3.40;;;20.20;74.80;;;;;;5027476;28;20022;-66
2023/09/06 04:15:42;;;;;;;6.97;3.75;;;20.20;74.90;;;;;;5021214;28;20014;-66
2023/09/06 04:18:41;;;;;;;7.38;4.10;;;20.20;74.90;;;;;;5013645;28;20533;-66
2023/09/06 04:21:25;;;;;;;9.25;3.88;;;20.20;74.90;;;;;;5046689;28;20036;-66
2023/09/06 04:23:51;;;;;;;8.05;4.47;;;20.10;74.90;;;;;;5029695;28;20040;-66
2023/09/06 04:26:20;;;;;;;7.00;3.80;;;20.10;74.90;;;;;;5014185;28;20122;-66
2023/09/06 04:28:46;;;;;;;8.30;4.40;;;20.10;74.90;;;;;;5017363;28;20025;-65
2023/09/06 04:31:17;;;;;;;7.68;4.05;;;20.10;74.90;;;;;;5034305;28;20033;-65
2023/09/06 04:33:45;;;;;;;7.30;3.95;;;20.10;74.90;;;;;;5035251;28;20397;-65
2023/09/06 04:36:15;;;;;;;7.10;3.90;;;20.10;75.00;;;;;;5032607;28;20465;-65
2023/09/06 04:38:43;;;;;;;7.35;3.97;;;20.10;75.00;;;;;;5033602;28;20021;-66
2023/09/06 04:41:10;;;;;;;7.50;4.28;;;20.10;75.10;;;;;;5048420;28;20501;-66
2023/09/06 04:43:49;;;;;;;7.25;4.20;;;20.10;75.10;;;;;;5033710;28;20027;-66
2023/09/06 04:46:16;;;;;;;8.20;4.05;;;20.00;75.00;;;;;;5049143;28;20025;-66
2023/09/06 04:48:44;;;;;;;6.78;3.78;;;20.00;75.10;;;;;;5036310;28;20036;-66
2023/09/06 04:51:14;;;;;;;8.05;4.40;;;20.00;75.20;;;;;;5053925;28;20033;-66
2023/09/06 04:53:40;;;;;;;7.13;4.20;;;20.00;75.20;;;;;;5026797;28;20068;-67
2023/09/06 04:56:08;;;;;;;10.70;4.45;;;19.90;75.20;;;;;;5030461;28;20458;-66
2023/09/06 04:58:45;;;;;;;7.68;3.78;;;19.90;75.20;;;;;;5029821;28;20037;-66
2023/09/06 05:01:11;;;;;;;7.53;3.92;;;19.90;75.20;;;;;;5056925;28;20107;-65
2023/09/06 05:03:38;;;;;;;7.25;4.13;;;19.90;75.30;;;;;;5034973;28;20026;-66
2023/09/06 05:06:04;;;;;;;7.72;4.00;;;19.80;75.30;;;;;;5035669;28;20354;-66
2023/09/06 05:08:30;;;;;;;8.65;4.07;;;19.90;75.40;;;;;;5035842;28;20025;-66
2023/09/06 05:10:58;;;;;;;7.90;4.32;;;19.80;75.40;;;;;;5029819;28;20386;-66
2023/09/06 05:13:25;;;;;;;6.80;3.75;;;19.80;75.40;;;;;;5032906;28;20113;-66
2023/09/06 05:15:51;;;;;;;7.00;3.67;;;19.80;75.40;;;;;;5034867;28;20115;-66
2023/09/06 05:18:17;;;;;;;7.70;4.40;;;19.80;75.50;;;;;;5036235;28;20357;-66
2023/09/06 05:20:44;;;;;;;8.30;4.13;;;19.80;75.50;;;;;;5028001;28;20028;-66
2023/09/06 05:23:14;;;;;;;8.88;3.95;;;19.80;75.60;;;;;;5025489;28;20516;-66
2023/09/06 05:25:42;;;;;;;8.13;3.78;;;19.80;75.60;;;;;;5029210;28;20051;-66
2023/09/06 05:28:14;;;;;;;8.73;4.27;;;19.80;75.70;;;;;;5059871;28;20037;-66
2023/09/06 05:30:45;;;;;;;8.13;4.75;;;19.80;75.70;;;;;;5011446;28;20272;-65
2023/09/06 05:33:14;;;;;;;7.57;4.20;;;19.80;75.70;;;;;;5043869;28;21729;-66
2023/09/06 05:35:41;;;;;;;8.52;4.10;;;19.80;75.70;;;;;;5060363;28;20120;-66
2023/09/06 05:38:09;;;;;;;7.45;4.30;;;19.80;75.70;;;;;;5009933;28;20474;-66
2023/09/06 05:40:40;;;;;;;10.27;4.53;;;19.90;75.70;;;;;;5030745;28;20024;-66
2023/09/06 05:43:07;;;;;;;8.63;4.63;;;19.90;75.70;;;;;;5058745;28;20025;-66
2023/09/06 05:45:33;;;;;;;7.72;4.10;;;19.90;75.70;;;;;;5058063;28;20029;-65
2023/09/06 05:47:59;;;;;;;8.88;4.68;;;19.90;75.70;;;;;;5025048;28;20095;-65
2023/09/06 05:50:29;;;;;;;7.03;4.00;;;19.90;75.60;;;;;;5060751;28;20032;-65
2023/09/06 05:52:56;;;;;;;27.98;4.50;;;20.00;75.60;;;;;;5026099;28;20262;-66
2023/09/06 05:55:23;;;;;;;11.98;4.68;;;20.10;75.50;;;;;;5027789;28;20344;-67
2023/09/06 05:57:51;;;;;;;11.10;4.53;;;20.10;75.30;;;;;;5028551;28;20136;-65
2023/09/06 06:00:21;;;;;;;9.63;4.53;;;20.20;75.20;;;;;;5026540;28;20110;-66
2023/09/06 06:02:51;;;;;;;13.32;5.80;;;20.20;75.20;;;;;;5030735;28;20091;-65
2023/09/06 06:05:18;;;;;;;9.52;5.03;;;20.30;75.10;;;;;;5024896;28;20033;-66
2023/09/06 06:07:45;;;;;;;14.75;5.40;;;20.40;75.10;;;;;;5031022;28;20032;-65
2023/09/06 06:10:13;;;;;;;11.63;5.13;;;20.40;75.10;;;;;;5018504;28;20363;-66
2023/09/06 06:12:39;;;;;;;8.43;4.78;;;20.50;74.90;;;;;;5027388;28;20029;-65
2023/09/06 06:15:12;;;;;;;12.90;4.93;;;20.50;74.70;;;;;;5027371;28;20036;-66
2023/09/06 06:17:38;;;;;;;7.72;4.53;;;20.60;74.60;;;;;;5028803;28;20029;-66
2023/09/06 06:20:09;;;;;;;8.63;4.65;;;20.60;74.60;;;;;;5029458;28;20037;-66
2023/09/06 06:22:39;;;;;;;8.10;4.78;;;20.80;74.50;;;;;;5024514;28;20026;-66
2023/09/06 06:25:10;;;;;;;7.88;4.80;;;21.00;74.10;;;;;;5055056;28;20021;-66
2023/09/06 06:27:37;;;;;;;8.45;4.75;;;21.40;73.20;;;;;;5026686;28;21177;-66
2023/09/06 06:30:06;;;;;;;8.85;5.18;;;22.00;72.30;;;;;;5006978;28;20101;-66
2023/09/06 06:32:33;;;;;;;8.25;5.18;;;22.60;70.60;;;;;;5029460;28;20442;-66
2023/09/06 06:35:05;;;;;;;8.55;4.80;;;23.30;69.00;;;;;;5027420;28;20025;-67
2023/09/06 06:37:31;;;;;;;7.55;4.35;;;24.00;67.40;;;;;;5024907;28;20029;-67
2023/09/06 06:39:58;;;;;;;11.13;4.85;;;24.50;66.00;;;;;;5026690;28;20029;-67
2023/09/06 06:42:25;;;;;;;8.30;4.63;;;24.90;64.70;;;;;;5026844;28;20030;-66
2023/09/06 06:44:55;;;;;;;8.70;5.18;;;25.10;63.90;;;;;;5057074;28;20024;-66
2023/09/06 06:47:21;;;;;;;9.27;4.57;;;25.10;63.40;;;;;;5025815;28;20021;-66
2023/09/06 06:49:50;;;;;;;7.95;4.45;;;24.90;63.70;;;;;;5029371;28;20123;-65
2023/09/06 06:52:16;;;;;;;10.65;4.65;;;24.60;64.30;;;;;;5025378;28;20488;-65
2023/09/06 06:54:42;;;;;;;9.27;4.97;;;24.30;65.00;;;;;;5053860;28;20056;-65
2023/09/06 06:57:08;;;;;;;8.57;4.65;;;24.10;65.60;;;;;;5022189;28;20045;-66
2023/09/06 06:59:34;;;;;;;8.15;4.43;;;23.90;65.90;;;;;;5032826;28;20045;-64
2023/09/06 07:02:00;;;;;;;8.95;4.25;;;23.80;66.20;;;;;;5018670;28;20079;-70
2023/09/06 07:04:26;;;;;;;8.10;4.30;;;23.60;66.40;;;;;;5031324;28;20376;-67
2023/09/06 07:06:52;;;;;;;8.88;4.60;;;23.60;66.60;;;;;;5036679;28;20021;-66
2023/09/06 07:09:18;;;;;;;8.00;4.38;;;23.60;66.70;;;;;;5034338;28;20022;-67
2023/09/06 07:11:44;;;;;;;9.15;4.35;;;23.50;66.70;;;;;;5015095;28;20427;-67
2023/09/06 07:14:09;;;;;;;8.27;4.68;;;23.60;66.80;;;;;;5013546;28;20026;-67
2023/09/06 07:16:35;;;;;;;12.60;4.43;;;23.60;66.60;;;;;;5014751;28;20499;-67
2023/09/06 07:19:01;;;;;;;6.57;4.13;;;23.60;66.60;;;;;;5050418;28;20018;-67
2023/09/06 07:21:28;;;;;;;9.70;4.78;;;23.60;66.40;;;;;;5016263;28;20101;-67
2023/09/06 07:23:54;;;;;;;9.25;4.47;;;23.70;66.50;;;;;;5022980;28;20017;-67
2023/09/06 07:26:21;;;;;;;9.02;4.38;;;23.80;66.20;;;;;;5034271;28;20029;-67
2023/09/06 07:28:47;;;;;;;9.15;4.13;;;23.90;66.00;;;;;;5048252;28;20050;-67
2023/09/06 07:31:14;;;;;;;9.30;4.18;;;24.00;65.90;;;;;;5034210;28;20029;-67
2023/09/06 07:33:40;;;;;;;9.00;4.13;;;24.10;65.60;;;;;;5034483;28;20030;-67
2023/09/06 07:36:07;;;;;;;8.15;4.10;;;24.20;65.40;;;;;;5029738;28;20036;-67
2023/09/06 07:38:33;;;;;;;7.85;3.60;;;24.30;64.90;;;;;;5027543;28;20080;-67
2023/09/06 07:41:01;;;;;;;9.82;4.90;;;24.40;64.60;;;;;;5023548;28;20033;-67
2023/09/06 07:43:28;;;;;;;12.93;4.72;;;24.60;64.10;;;;;;5023463;28;20513;-68
2023/09/06 07:46:01;;;;;;;7.65;3.83;;;24.80;63.70;;;;;;5033489;28;20034;-67
2023/09/06 07:48:29;;;;;;;9.30;4.03;;;25.00;63.00;;;;;;5009618;28;20045;-68
2023/09/06 07:50:59;;;;;;;8.23;4.05;;;25.20;62.60;;;;;;5027362;28;20030;-67
2023/09/06 07:53:28;;;;;;;8.20;3.88;;;25.40;62.20;;;;;;5020265;28;20037;-67
2023/09/06 07:55:55;;;;;;;7.75;3.58;;;25.60;62.00;;;;;;5034335;28;20025;-68
2023/09/06 07:58:21;;;;;;;7.47;3.45;;;25.70;61.60;;;;;;5022898;28;20439;-68
2023/09/06 08:00:48;;;;;;;7.10;3.40;;;26.00;61.40;;;;;;5024982;28;20034;-68
2023/09/06 08:03:14;;;;;;;7.13;3.85;;;26.20;61.10;;;;;;5025179;28;20427;-68
2023/09/06 08:05:41;;;;;;;8.23;3.30;;;26.30;60.70;;;;;;5053933;28;20041;-68
2023/09/06 08:08:11;;;;;;;6.28;3.42;;;26.50;60.30;;;;;;5019559;28;20033;-68
2023/09/06 08:10:38;;;;;;;6.22;3.40;;;26.70;59.90;;;;;;5012685;28;20021;-68
2023/09/06 08:13:05;;;;;;;6.85;3.20;;;26.80;59.50;;;;;;5027321;28;20025;-68
2023/09/06 08:15:31;;;;;;;7.00;3.45;;;27.00;59.40;;;;;;5017014;28;20068;-67
2023/09/06 08:17:57;;;;;;;6.43;3.08;;;27.10;58.90;;;;;;5051787;28;20029;-68
2023/09/06 08:20:23;;;;;;;6.15;2.92;;;27.30;58.70;;;;;;5013375;28;20117;-68
2023/09/06 08:22:49;;;;;;;5.78;2.80;;;27.40;58.30;;;;;;5029866;28;20468;-68
2023/09/06 08:25:17;;;;;;;6.22;2.75;;;27.50;57.90;;;;;;5036169;28;20116;-68
2023/09/06 08:27:43;;;;;;;7.45;3.50;;;27.60;57.70;;;;;;5034546;28;20032;-68
2023/09/06 08:30:15;;;;;;;7.55;2.97;;;27.70;57.30;;;;;;5036479;28;20096;-68
2023/09/06 08:32:42;;;;;;;6.70;3.03;;;27.80;57.00;;;;;;5034621;28;20035;-68
2023/09/06 08:35:09;;;;;;;8.20;2.80;;;27.90;56.90;;;;;;5035505;28;20092;-68
2023/09/06 08:37:35;;;;;;;5.25;2.60;;;28.10;56.60;;;;;;5033159;28;20026;-69
2023/09/06 08:40:05;;;;;;;5.93;3.05;;;28.20;56.40;;;;;;5063755;28;20446;-68
2023/09/06 08:42:35;;;;;;;7.13;2.63;;;28.30;56.10;;;;;;5034360;28;20083;-68
2023/09/06 08:45:04;;;;;;;5.93;2.60;;;28.40;56.20;;;;;;5030565;28;20096;-68
2023/09/06 08:47:30;;;;;;;5.78;2.83;;;28.40;56.10;;;;;;5031599;28;20105;-67
2023/09/06 08:49:56;;;;;;;7.95;2.92;;;28.60;55.70;;;;;;5010294;28;20022;-68
2023/09/06 08:52:24;;;;;;;5.03;2.58;;;28.60;55.50;;;;;;5025561;28;20092;-68
2023/09/06 08:54:51;;;;;;;6.53;2.65;;;28.70;55.20;;;;;;5024723;28;20050;-68
2023/09/06 08:57:20;;;;;;;6.53;2.75;;;28.80;55.10;;;;;;5024441;28;20053;-68
2023/09/06 08:59:47;;;;;;;6.65;2.70;;;28.90;54.80;;;;;;5026790;28;20045;-68
2023/09/06 09:02:14;;;;;;;6.45;2.78;;;29.00;54.60;;;;;;5042480;28;20418;-68
2023/09/06 09:04:43;;;;;;;4.85;2.25;;;29.10;54.50;;;;;;5026378;28;20026;-68
2023/09/06 09:07:11;;;;;;;5.28;2.53;;;29.10;54.30;;;;;;5013645;28;20045;-68
2023/09/06 09:10:07;;;;;;;6.22;2.60;;;29.20;54.30;;;;;;5026290;28;20453;-68
2023/09/06 09:12:34;;;;;;;7.22;2.85;;;29.20;54.10;;;;;;5054492;28;20415;-67
2023/09/06 09:15:02;;;;;;;7.82;3.33;;;29.30;54.20;;;;;;5054958;28;20021;-68
2023/09/06 09:17:29;;;;;;;6.53;3.03;;;29.40;53.90;;;;;;5025845;28;20071;-68
2023/09/06 09:19:57;;;;;;;8.02;4.00;;;29.40;53.70;;;;;;5057392;28;20110;-68
2023/09/06 09:22:24;;;;;;;7.95;3.70;;;29.40;53.40;;;;;;5033828;28;20033;-69
2023/09/06 09:24:57;;;;;;;7.40;2.97;;;29.50;53.20;;;;;;5026727;28;20025;-69
2023/09/06 09:27:23;;;;;;;7.63;3.53;;;29.50;52.90;;;;;;5018884;28;20021;-68
2023/09/06 09:29:49;;;;;;;8.75;3.53;;;29.60;52.60;;;;;;5047160;28;20367;-68
2023/09/06 09:32:15;;;;;;;6.80;3.50;;;29.70;52.30;;;;;;5025771;28;20029;-68
2023/09/06 09:34:41;;;;;;;7.85;3.25;;;29.70;52.00;;;;;;5030218;28;20030;-68
2023/09/06 09:37:10;;;;;;;7.95;3.40;;;29.70;52.00;;;;;;5026704;28;20083;-66
2023/09/06 09:39:37;;;;;;;6.53;3.15;;;29.70;52.20;;;;;;5026999;28;20075;-68
2023/09/06 09:42:05;;;;;;;6.53;3.03;;;29.80;52.40;;;;;;5027597;28;20108;-65
2023/09/06 09:44:31;;;;;;;6.22;3.08;;;29.90;52.30;;;;;;5022654;28;20025;-66
2023/09/06 09:47:07;;;;;;;5.63;3.15;;;29.90;52.10;;;;;;5022641;28;20034;-66
2023/09/06 09:49:33;;;;;;;7.78;2.80;;;29.90;51.90;;;;;;5021977;28;20095;-67
2023/09/06 09:51:59;;;;;;;4.93;2.30;;;29.90;52.00;;;;;;5029410;28;20098;-65
2023/09/06 09:54:28;;;;;;;6.78;2.90;;;29.90;52.20;;;;;;5031253;28;20061;-68
2023/09/06 09:57:06;;;;;;;6.65;3.00;;;30.00;51.70;;;;;;5019457;28;20080;-67
2023/09/06 09:59:35;;;;;;;7.07;2.90;;;30.10;51.40;;;;;;5055581;28;20443;-67
2023/09/06 10:02:02;;;;;;;5.28;2.60;;;30.20;51.30;;;;;;5022690;28;20029;-67
2023/09/06 10:04:29;;;;;;;7.15;3.08;;;30.20;51.40;;;;;;5009171;28;20368;-67
2023/09/06 10:06:56;;;;;;;6.00;2.40;;;30.30;51.20;;;;;;5013077;28;20037;-66
2023/09/06 10:09:22;;;;;;;7.05;3.03;;;30.40;51.30;;;;;;5028733;28;20386;-66
2023/09/06 10:11:50;;;;;;;8.57;2.83;;;30.40;51.20;;;;;;5023971;28;20017;-66
2023/09/06 10:14:19;;;;;;;7.18;2.40;;;30.50;51.20;;;;;;5020212;28;20561;-65
2023/09/06 10:16:48;;;;;;;5.40;2.50;;;30.60;51.40;;;;;;5020067;28;20029;-66
2023/09/06 10:19:14;;;;;;;5.35;2.45;;;30.70;51.00;;;;;;5025886;28;20417;-66
2023/09/06 10:21:42;;;;;;;7.80;2.60;;;30.70;50.80;;;;;;5030148;28;20022;-66
2023/09/06 10:24:18;;;;;;;6.85;2.67;;;30.80;50.70;;;;;;5016737;28;20032;-66
2023/09/06 10:26:47;;;;;;;7.47;3.10;;;30.90;50.60;;;;;;5023012;28;20034;-66
2023/09/06 10:29:23;;;;;;;7.63;3.00;;;31.00;50.20;;;;;;5012360;28;20021;-65
2023/09/06 10:31:51;;;;;;;7.80;2.80;;;30.90;49.70;;;;;;5029030;28;20358;-66
2023/09/06 10:34:20;;;;;;;6.03;3.00;;;31.00;49.50;;;;;;5027927;28;20040;-66
2023/09/06 10:36:57;;;;;;;8.15;3.00;;;31.00;49.10;;;;;;5024293;28;20049;-66
2023/09/06 10:39:28;;;;;;;7.43;3.22;;;31.00;49.00;;;;;;5024293;28;20040;-66
2023/09/06 10:42:09;;;;;;;7.28;2.70;;;31.10;49.00;;;;;;5022655;28;20033;-67
2023/09/06 10:44:53;;;;;;;5.90;2.30;;;31.20;48.30;;;;;;5026451;28;20026;-66
2023/09/06 10:47:30;;;;;;;6.60;2.70;;;31.20;48.00;;;;;;5055054;28;20048;-66
2023/09/06 10:50:18;;;;;;;6.25;2.75;;;31.30;47.20;;;;;;5026302;28;20136;-66
2023/09/06 10:52:51;;;;;;;5.82;2.63;;;31.30;46.50;;;;;;5025025;28;20037;-66
2023/09/06 10:55:23;;;;;;;5.45;2.63;;;31.30;46.60;;;;;;5027151;28;20044;-66
2023/09/06 10:57:54;;;;;;;7.30;2.72;;;31.30;46.10;;;;;;5027605;28;20056;-66
2023/09/06 11:00:25;;;;;;;5.38;2.20;;;31.40;46.10;;;;;;5027247;28;20095;-66
2023/09/06 11:03:06;;;;;;;6.88;2.40;;;31.40;45.50;;;;;;5019038;28;20445;-66
2023/09/06 11:05:38;;;;;;;6.03;2.35;;;31.40;45.00;;;;;;5040935;28;20061;-67
2023/09/06 11:08:08;;;;;;;6.18;2.75;;;31.30;45.10;;;;;;5030605;28;20437;-65
2023/09/06 11:10:38;;;;;;;6.28;2.97;;;31.40;45.90;;;;;;5027276;28;20084;-66
2023/09/06 11:13:15;;;;;;;7.47;2.70;;;31.40;46.00;;;;;;5016585;28;20025;-66
2023/09/06 11:15:41;;;;;;;5.28;2.70;;;31.50;46.20;;;;;;5033678;28;20084;-66
2023/09/06 11:18:09;;;;;;;6.97;2.60;;;31.60;46.60;;;;;;5017277;28;20777;-66
2023/09/06 11:20:35;;;;;;;6.00;2.83;;;31.60;46.80;;;;;;5035083;28;20036;-66
2023/09/06 11:23:03;;;;;;;7.03;3.03;;;31.70;47.00;;;;;;5028619;28;20037;-66
2023/09/06 11:25:33;;;;;;;6.20;2.72;;;31.80;47.10;;;;;;5034434;28;20116;-66
2023/09/06 11:28:13;;;;;;;5.15;2.40;;;31.80;47.00;;;;;;5034536;28;20438;-66
2023/09/06 11:30:39;;;;;;;5.85;2.72;;;31.80;47.10;;;;;;5021977;28;20109;-66
2023/09/06 11:33:11;;;;;;;6.55;2.60;;;31.90;47.10;;;;;;5033458;28;20021;-66
2023/09/06 11:35:40;;;;;;;7.03;3.03;;;31.90;46.90;;;;;;5021027;28;20053;-67
2023/09/06 11:38:14;;;;;;;6.10;2.65;;;31.90;46.80;;;;;;5034663;28;20450;-66
2023/09/06 11:40:42;;;;;;;5.80;2.38;;;31.90;46.50;;;;;;5020003;28;20497;-66
2023/09/06 11:43:10;;;;;;;5.80;2.90;;;31.90;46.50;;;;;;5032872;28;20537;-66
2023/09/06 11:45:37;;;;;;;6.28;3.10;;;31.80;46.70;;;;;;5033472;28;20108;-66
2023/09/06 11:48:08;;;;;;;6.93;2.88;;;31.90;46.90;;;;;;5065248;28;20090;-66
2023/09/06 11:50:34;;;;;;;;;;;31.90;47.10;;;;;;5034015;28;20029;-66
2023/09/06 11:53:04;;;;;;;4.93;2.40;;;31.90;47.40;;;;;;5034197;28;19909;-67
2023/09/06 11:55:34;;;;;;;5.50;2.60;;;31.80;46.70;;;;;;5033541;28;20458;-67
2023/09/06 11:58:00;;;;;;;5.83;2.77;;;31.80;46.20;;;;;;5031714;28;20041;-67
2023/09/06 12:00:46;;;;;;;8.05;2.90;;;31.80;46.10;;;;;;5046350;28;20057;-67
2023/09/06 12:03:16;;;;;;;6.25;3.08;;;31.80;45.60;;;;;;5032866;28;20354;-66
2023/09/06 12:05:43;;;;;;;5.13;2.53;;;31.80;45.50;;;;;;5032212;28;20439;-67
2023/09/06 12:08:12;;;;;;;6.07;2.83;;;31.70;45.40;;;;;;5033495;28;20083;-67
2023/09/06 12:10:39;;;;;;;7.57;2.63;;;31.70;45.00;;;;;;5030247;28;20355;-67
2023/09/06 12:13:08;;;;;;;6.18;2.78;;;31.60;44.50;;;;;;5033416;28;20438;-67
2023/09/06 12:15:33;;;;;;;5.80;2.38;;;31.60;44.40;;;;;;5033400;28;20025;-66
2023/09/06 12:18:03;;;;;;;6.47;2.67;;;31.60;44.00;;;;;;5032418;28;20040;-67
2023/09/06 12:20:32;;;;;;;5.18;2.33;;;31.40;43.90;;;;;;5017554;28;20057;-67
2023/09/06 12:22:58;;;;;;;5.72;2.28;;;31.40;43.90;;;;;;5013991;28;20034;-66
2023/09/06 12:25:23;;;;;;;5.90;2.50;;;31.40;43.90;;;;;;5032220;28;20039;-66
2023/09/06 12:27:49;;;;;;;6.38;2.65;;;31.30;44.20;;;;;;5033420;28;20087;-66
2023/09/06 12:30:18;;;;;;;7.00;2.85;;;31.30;44.40;;;;;;5032375;28;20029;-67
2023/09/06 12:32:45;;;;;;;7.10;2.88;;;31.20;44.30;;;;;;5033194;28;20080;-66
2023/09/06 12:35:12;;;;;;;7.35;2.85;;;31.10;44.20;;;;;;5032407;28;20030;-67
2023/09/06 12:37:38;;;;;;;6.75;2.72;;;31.00;44.20;;;;;;5032900;28;20033;-68
2023/09/06 12:40:10;;;;;;;6.88;2.80;;;31.00;44.30;;;;;;5031749;28;20026;-67
2023/09/06 12:42:46;;;;;;;6.88;2.70;;;30.90;44.50;;;;;;5031329;28;20069;-66
2023/09/06 12:45:37;;;;;;;7.03;2.55;;;30.90;45.00;;;;;;5020020;28;20113;-67
2023/09/06 12:48:05;;;;;;;5.65;2.88;;;30.80;45.10;;;;;;5034464;28;20033;-66
2023/09/06 12:50:31;;;;;;;6.13;2.75;;;30.70;44.90;;;;;;5036370;28;20030;-67
2023/09/06 12:52:57;;;;;;;8.48;3.22;;;30.70;45.40;;;;;;5032995;28;20446;-67
2023/09/06 12:55:22;;;;;;;6.40;3.10;;;30.60;44.90;;;;;;5036006;28;20117;-67
2023/09/06 12:57:50;;;;;;;6.47;2.95;;;30.50;45.00;;;;;;4990397;28;1327081;-67